Terminal Aerodrome Forecast
Issued by NWS

Home | Current Version | Previous Version | Text Only | Print | Product List | Glossary Off
Versions: 1 2 3 4 5 6 7 8 9 10 11 12 13 14 15 16 17 18

073
FTUS43 KMPX 090945 AAA
TAFRWF
TAF AMD
KRWF 090945Z 0910/1006 33012G20KT P6SM SCT015
     FM091500 33010G19KT P6SM SKC
     FM100200 32011KT P6SM SCT250=

USA.gov is the U.S. government's official web portal to all federal, state and local government web resources and services.